createdAt,value
2019-04-28T00:01:05.957Z,100432.83
2019-04-28T00:03:34.026Z,100426.66
2019-04-28T00:06:02.079Z,100428.91
2019-04-28T00:08:31.888Z,100430.70
2019-04-28T00:11:01.833Z,100432.66
2019-04-28T00:13:31.970Z,100430.69
2019-04-28T00:16:01.598Z,100432.28
2019-04-28T00:18:31.713Z,100433.59
2019-04-28T00:21:28.376Z,100431.80
2019-04-28T00:24:15.689Z,100427.38
2019-04-28T00:26:49.414Z,100431.30
2019-04-28T00:29:17.542Z,100429.66
2019-04-28T00:31:45.716Z,100431.80
2019-04-28T00:34:14.362Z,100436.05
2019-04-28T00:36:44.324Z,100429.00
2019-04-28T00:39:12.752Z,100434.23
2019-04-28T00:41:42.027Z,100431.29
2019-04-28T00:44:11.909Z,100425.41
2019-04-28T00:46:41.661Z,100430.16
2019-04-28T00:49:11.751Z,100431.78
2019-04-28T00:51:41.534Z,100423.40
2019-04-28T00:54:11.498Z,100423.07
2019-04-28T00:56:41.795Z,100426.66
2019-04-28T00:59:11.791Z,100429.43
2019-04-28T01:01:51.165Z,100426.61
2019-04-28T01:04:19.304Z,100429.87
2019-04-28T01:06:47.330Z,100421.21
2019-04-28T01:09:15.520Z,100417.11
2019-04-28T01:11:43.685Z,100409.55
2019-04-28T01:14:11.775Z,100402.36
2019-04-28T01:16:46.075Z,100409.05
2019-04-28T01:19:20.249Z,100407.54
2019-04-28T01:22:12.348Z,100407.85
2019-04-28T01:24:40.840Z,100411.05
2019-04-28T01:27:46.832Z,100407.44
2019-04-28T01:30:40.252Z,100406.45
2019-04-28T01:33:18.283Z,100405.75
2019-04-28T01:35:46.520Z,100404.91
2019-04-28T01:38:14.569Z,100409.60
2019-04-28T01:40:42.580Z,100406.66
2019-04-28T01:43:10.787Z,100405.63
2019-04-28T01:45:39.898Z,100405.78
2019-04-28T01:48:10.118Z,100397.92
2019-04-28T01:50:39.896Z,100403.27
2019-04-28T01:53:09.733Z,100402.33
2019-04-28T01:55:39.344Z,100401.84
2019-04-28T01:58:09.589Z,100402.66
2019-04-28T02:00:38.248Z,100401.36
2019-04-28T02:03:06.637Z,100402.17
2019-04-28T02:05:34.675Z,100398.74
2019-04-28T02:08:02.865Z,100398.25
2019-04-28T02:10:31.237Z,100391.03
2019-04-28T02:12:59.919Z,100393.80
2019-04-28T02:15:30.183Z,100392.31
2019-04-28T02:18:00.093Z,100390.80
2019-04-28T02:20:30.122Z,100396.82
2019-04-28T02:23:21.555Z,100394.13
2019-04-28T02:25:49.881Z,100395.69
2019-04-28T02:28:19.817Z,100405.08
2019-04-28T02:30:53.162Z,100405.02
2019-04-28T02:33:17.791Z,100403.64
2019-04-28T02:35:47.102Z,100408.53
2019-04-28T02:38:15.324Z,100404.28
2019-04-28T02:40:43.323Z,100401.67
2019-04-28T02:43:11.648Z,100405.26
2019-04-28T02:45:41.236Z,100401.83
2019-04-28T02:48:15.573Z,100398.88
2019-04-28T02:51:07.591Z,100398.67
2019-04-28T02:53:40.847Z,100401.16
2019-04-28T02:56:11.245Z,100402.09
2019-04-28T02:58:41.533Z,100394.63
2019-04-28T03:01:18.555Z,100392.84
2019-04-28T03:03:40.829Z,100389.41
2019-04-28T03:06:10.801Z,100389.90
2019-04-28T03:08:40.513Z,100385.98
2019-04-28T03:11:10.686Z,100381.85
2019-04-28T03:13:41.108Z,100381.67
2019-04-28T03:16:10.813Z,100379.67
2019-04-28T03:18:41.063Z,100381.61
2019-04-28T03:21:11.219Z,100376.70
2019-04-28T03:23:40.524Z,100381.77
2019-04-28T03:26:34.331Z,100376.55
2019-04-28T03:29:10.820Z,100373.45
2019-04-28T03:32:13.851Z,100381.27
2019-04-28T03:34:15.035Z,100379.15
2019-04-28T03:36:43.040Z,100375.99
2019-04-28T03:39:11.275Z,100370.59
2019-04-28T03:41:40.582Z,100373.35
2019-04-28T03:44:11.274Z,100374.66
2019-04-28T03:46:45.001Z,100375.48
2019-04-28T03:49:31.052Z,100370.26
2019-04-28T03:52:01.079Z,100366.50
2019-04-28T03:54:30.357Z,100370.89
2019-04-28T03:57:01.124Z,100367.80
2019-04-28T03:59:31.145Z,100367.31
2019-04-28T04:02:02.830Z,100359.97
2019-04-28T04:04:32.241Z,100363.40
2019-04-28T04:07:01.511Z,100366.01
2019-04-28T04:09:41.392Z,100357.54
2019-04-28T04:12:30.750Z,100362.61
2019-04-28T04:15:06.458Z,100363.16
2019-04-28T04:18:01.287Z,100360.24
2019-04-28T04:20:31.062Z,100359.97
2019-04-28T04:23:01.435Z,100367.50
2019-04-28T04:25:31.381Z,100365.38
2019-04-28T04:28:02.985Z,100361.78
2019-04-28T04:30:31.267Z,100363.42
2019-04-28T04:33:01.330Z,100366.03
2019-04-28T04:35:31.546Z,100367.83
2019-04-28T04:38:00.443Z,100371.41
2019-04-28T04:40:41.314Z,100368.16
2019-04-28T04:43:26.559Z,100371.47
2019-04-28T04:46:17.861Z,100368.22
2019-04-28T04:48:45.931Z,100368.22
2019-04-28T04:51:13.938Z,100370.83
2019-04-28T04:53:42.019Z,100367.09
2019-04-28T04:56:10.602Z,100366.27
2019-04-28T04:58:40.761Z,100368.61
2019-04-28T05:01:15.816Z,100362.27
2019-04-28T05:03:47.099Z,100367.33
2019-04-28T05:06:32.977Z,100368.36
2019-04-28T05:09:01.153Z,100370.33
2019-04-28T05:11:31.099Z,100372.79
2019-04-28T05:13:59.695Z,100382.14
2019-04-28T05:16:29.794Z,100379.70
2019-04-28T05:18:59.916Z,100384.98
2019-04-28T05:21:31.145Z,100388.59
2019-04-28T05:24:17.334Z,100389.95
2019-04-28T05:26:47.768Z,100397.00
2019-04-28T05:29:21.818Z,100394.77
2019-04-28T05:31:46.312Z,100391.83
2019-04-28T05:34:14.410Z,100395.59
2019-04-28T05:36:44.692Z,100403.64
2019-04-28T05:39:12.901Z,100402.45
2019-04-28T05:41:40.994Z,100403.15
2019-04-28T05:44:10.054Z,100406.86
2019-04-28T05:46:40.054Z,100404.58
2019-04-28T05:49:30.387Z,100404.09
2019-04-28T05:52:03.573Z,100406.27
2019-04-28T05:54:49.552Z,100407.63
2019-04-28T05:57:33.052Z,100413.57
2019-04-28T06:00:13.685Z,100419.97
2019-04-28T06:02:54.170Z,100420.51
2019-04-28T06:05:14.455Z,100417.25
2019-04-28T06:07:56.601Z,100426.48
2019-04-28T06:10:25.249Z,100428.66
2019-04-28T06:12:54.950Z,100433.26
2019-04-28T06:15:23.033Z,100432.00
2019-04-28T06:17:51.061Z,100424.64
2019-04-28T06:20:20.094Z,100430.30
2019-04-28T06:22:48.267Z,100417.52
2019-04-28T06:25:16.331Z,100421.61
2019-04-28T06:27:44.786Z,100423.23
2019-04-28T06:30:13.487Z,100425.97
2019-04-28T06:32:41.537Z,100421.56
2019-04-28T06:35:10.007Z,100408.80
2019-04-28T06:37:38.084Z,100416.64
2019-04-28T06:40:06.362Z,100418.46
2019-04-28T06:42:34.469Z,100420.64
2019-04-28T06:45:02.549Z,100422.00
2019-04-28T06:47:31.020Z,100427.56
2019-04-28T06:49:58.996Z,100420.88
2019-04-28T06:52:27.085Z,100429.35
2019-04-28T06:54:55.367Z,100432.78
2019-04-28T06:57:23.433Z,100431.86
2019-04-28T06:59:51.743Z,100435.91
2019-04-28T07:02:19.824Z,100440.86
2019-04-28T07:04:47.871Z,100438.47
2019-04-28T07:07:16.206Z,100441.02
2019-04-28T07:09:44.251Z,100437.34
2019-04-28T07:12:12.309Z,100436.03
2019-04-28T07:14:40.348Z,100426.87
2019-04-28T07:17:08.414Z,100430.94
2019-04-28T07:19:36.448Z,100432.66
2019-04-28T07:22:29.974Z,100430.41
2019-04-28T07:24:58.006Z,100429.47
2019-04-28T07:27:26.319Z,100433.47
2019-04-28T07:29:54.325Z,100436.44
2019-04-28T07:32:22.509Z,100438.77
2019-04-28T07:34:50.554Z,100436.67
2019-04-28T07:37:18.672Z,100439.97
2019-04-28T07:39:47.690Z,100429.84
2019-04-28T07:42:15.770Z,100429.87
2019-04-28T07:44:43.795Z,100432.32
2019-04-28T07:47:12.136Z,100436.91
2019-04-28T07:49:40.504Z,100438.59
2019-04-28T07:52:35.944Z,100440.56
2019-04-28T07:55:04.753Z,100441.38
2019-04-28T07:57:33.086Z,100442.03
2019-04-28T08:00:01.139Z,100442.39
2019-04-28T08:02:29.770Z,100441.06
2019-04-28T08:04:58.514Z,100440.91
2019-04-28T08:07:26.574Z,100443.38
2019-04-28T08:09:54.568Z,100443.86
2019-04-28T08:12:22.929Z,100436.16
2019-04-28T08:14:50.978Z,100438.62
2019-04-28T08:17:19.019Z,100440.42
2019-04-28T08:19:47.157Z,100445.17
2019-04-28T08:22:15.389Z,100448.94
2019-04-28T08:24:43.401Z,100444.55
2019-04-28T08:27:11.461Z,100447.20
2019-04-28T08:29:40.462Z,100443.27
2019-04-28T08:32:16.621Z,100447.23
2019-04-28T08:34:44.664Z,100445.45
2019-04-28T08:37:12.717Z,100444.30
2019-04-28T08:39:40.721Z,100441.97
2019-04-28T08:42:08.796Z,100440.30
2019-04-28T08:44:36.813Z,100436.52
2019-04-28T08:47:04.863Z,100440.43
2019-04-28T08:49:34.036Z,100439.86
2019-04-28T08:52:03.134Z,100440.64
2019-04-28T08:54:32.205Z,100433.52
2019-04-28T08:57:00.755Z,100436.59
2019-04-28T08:59:28.761Z,100434.04
2019-04-28T09:01:56.818Z,100429.59
2019-04-28T09:04:24.878Z,100431.72
2019-04-28T09:06:53.288Z,100432.59
2019-04-28T09:09:21.871Z,100427.62
2019-04-28T09:11:49.890Z,100429.18
2019-04-28T09:14:17.934Z,100423.17
2019-04-28T09:16:45.940Z,100418.55
2019-04-28T09:19:13.994Z,100418.01
2019-04-28T09:21:42.016Z,100431.62
2019-04-28T09:24:10.061Z,100433.41
2019-04-28T09:26:38.069Z,100425.22
2019-04-28T09:29:06.116Z,100428.13
2019-04-28T09:31:34.147Z,100425.52
2019-04-28T09:34:02.188Z,100422.70
2019-04-28T09:36:30.408Z,100415.22
2019-04-28T09:38:59.409Z,100414.70
2019-04-28T09:41:27.411Z,100419.53
2019-04-28T09:44:07.254Z,100417.19
2019-04-28T09:46:37.710Z,100413.47
2019-04-28T09:49:05.992Z,100408.19
2019-04-28T09:51:34.010Z,100406.83
2019-04-28T09:54:02.085Z,100410.63
2019-04-28T09:56:30.216Z,100420.70
2019-04-28T09:58:59.559Z,100415.38
2019-04-28T10:01:28.278Z,100416.02
2019-04-28T10:03:56.753Z,100411.69
2019-04-28T10:06:24.767Z,100405.84
2019-04-28T10:08:52.846Z,100407.84
2019-04-28T10:11:30.232Z,100410.36
2019-04-28T10:13:51.095Z,100404.20
2019-04-28T10:16:20.506Z,100407.69
2019-04-28T10:18:48.569Z,100401.84
2019-04-28T10:21:17.739Z,100399.47
2019-04-28T10:23:46.820Z,100400.16
2019-04-28T10:26:14.863Z,100396.28
2019-04-28T10:28:42.939Z,100393.97
2019-04-28T10:31:13.336Z,100393.73
2019-04-28T10:33:42.869Z,100394.09
2019-04-28T10:36:11.866Z,100389.83
2019-04-28T10:38:41.817Z,100388.27
2019-04-28T10:41:19.604Z,100385.55
2019-04-28T10:43:47.786Z,100388.31
2019-04-28T10:46:16.921Z,100393.41
2019-04-28T10:48:45.408Z,100387.05
2019-04-28T10:51:14.594Z,100396.14
2019-04-28T10:53:42.670Z,100389.39
2019-04-28T10:56:10.678Z,100396.13
2019-04-28T10:58:41.737Z,100394.53
2019-04-28T11:01:09.774Z,100405.22
2019-04-28T11:03:37.920Z,100414.28
2019-04-28T11:06:06.265Z,100418.05
2019-04-28T11:08:48.166Z,100419.55
2019-04-28T11:11:20.137Z,100429.64
2019-04-28T11:13:48.304Z,100435.20
2019-04-28T11:16:18.898Z,100441.20
2019-04-28T11:18:46.916Z,100447.32
2019-04-28T11:21:15.297Z,100452.06
2019-04-28T11:23:44.315Z,100448.33
2019-04-28T11:26:12.470Z,100445.42
2019-04-28T11:28:40.804Z,100439.28
2019-04-28T11:31:08.830Z,100434.00
2019-04-28T11:33:56.296Z,100445.06
2019-04-28T11:36:24.382Z,100434.45
2019-04-28T11:38:52.526Z,100434.19
2019-04-28T11:41:20.680Z,100432.30
2019-04-28T11:43:48.735Z,100421.76
2019-04-28T11:46:19.061Z,100420.37
2019-04-28T11:48:47.090Z,100418.09
2019-04-28T11:51:15.267Z,100420.57
2019-04-28T11:53:43.389Z,100411.06
2019-04-28T11:56:11.755Z,100409.13
2019-04-28T11:58:39.872Z,100413.02
2019-04-28T12:01:08.440Z,100404.75
2019-04-28T12:03:36.613Z,100402.16
2019-04-28T12:06:04.871Z,100402.12
2019-04-28T12:08:33.460Z,100404.27
2019-04-28T12:11:26.636Z,100404.30
2019-04-28T12:14:23.479Z,100402.39
2019-04-28T12:17:11.201Z,100404.29
2019-04-28T12:19:43.541Z,100401.47
2019-04-28T12:22:11.779Z,100397.20
2019-04-28T12:24:39.923Z,100397.33
2019-04-28T12:27:07.978Z,100392.40
2019-04-28T12:29:35.994Z,100388.00
2019-04-28T12:32:04.084Z,100389.89
2019-04-28T12:34:33.160Z,100389.50
2019-04-28T12:37:01.220Z,100386.66
2019-04-28T12:39:29.619Z,100387.52
2019-04-28T12:41:57.669Z,100386.18
2019-04-28T12:44:25.698Z,100382.27
2019-04-28T12:46:53.794Z,100377.72
2019-04-28T12:49:32.891Z,100381.48
2019-04-28T12:52:01.079Z,100372.06
2019-04-28T12:54:31.182Z,100379.69
2019-04-28T12:56:59.265Z,100373.97
2019-04-28T12:59:33.478Z,100358.89
2019-04-28T13:02:14.576Z,100357.98
2019-04-28T13:04:54.336Z,100355.23
2019-04-28T13:07:22.404Z,100350.42
2019-04-28T13:09:50.423Z,100352.22
2019-04-28T13:12:18.499Z,100350.72
2019-04-28T13:14:46.529Z,100344.34
2019-04-28T13:17:14.607Z,100343.39
2019-04-28T13:19:42.635Z,100338.33
2019-04-28T13:22:10.691Z,100341.59
2019-04-28T13:24:38.721Z,100333.02
2019-04-28T13:27:06.884Z,100323.39
2019-04-28T13:29:34.908Z,100331.69
2019-04-28T13:32:02.987Z,100335.08
2019-04-28T13:34:40.598Z,100320.77
2019-04-28T13:37:09.152Z,100319.92
2019-04-28T13:39:49.721Z,100323.64
2019-04-28T13:42:17.823Z,100319.19
2019-04-28T13:44:53.178Z,100320.00
2019-04-28T13:47:22.828Z,100317.42
2019-04-28T13:50:12.257Z,100314.63
2019-04-28T13:52:44.679Z,100309.45
2019-04-28T13:55:28.118Z,100307.73
2019-04-28T13:57:58.825Z,100302.13
2019-04-28T14:00:36.916Z,100304.41
2019-04-28T14:03:33.735Z,100302.80
2019-04-28T14:06:05.724Z,100298.89
2019-04-28T14:08:34.808Z,100296.82
2019-04-28T14:11:03.031Z,100303.31
2019-04-28T14:13:31.139Z,100301.13
2019-04-28T14:15:59.175Z,100304.16
2019-04-28T14:18:27.295Z,100301.42
2019-04-28T14:20:55.466Z,100304.58
2019-04-28T14:23:23.679Z,100309.50
2019-04-28T14:26:01.067Z,100298.81
2019-04-28T14:28:29.098Z,100294.25
2019-04-28T14:30:57.140Z,100299.57
2019-04-28T14:33:25.293Z,100292.54
2019-04-28T14:35:53.342Z,100285.89
2019-04-28T14:38:21.519Z,100293.45
2019-04-28T14:40:49.944Z,100286.64
2019-04-28T14:43:18.077Z,100296.30
2019-04-28T14:45:46.281Z,100293.58
2019-04-28T14:48:14.541Z,100304.11
2019-04-28T14:50:42.541Z,100307.30
2019-04-28T14:53:10.836Z,100308.39
2019-04-28T14:55:39.033Z,100306.37
2019-04-28T14:58:17.325Z,100308.78
2019-04-28T15:00:50.420Z,100312.41
2019-04-28T15:03:18.635Z,100315.16
2019-04-28T15:05:59.291Z,100318.92
2019-04-28T15:08:40.823Z,100318.95
2019-04-28T15:11:31.065Z,100324.02
2019-04-28T15:13:59.214Z,100328.73
2019-04-28T15:16:27.241Z,100334.73
2019-04-28T15:18:55.307Z,100335.46
2019-04-28T15:21:23.651Z,100339.75
2019-04-28T15:23:51.705Z,100344.12
2019-04-28T15:26:19.704Z,100345.26
2019-04-28T15:28:47.808Z,100338.92
2019-04-28T15:31:16.145Z,100346.32
2019-04-28T15:33:44.493Z,100348.91
2019-04-28T15:36:12.516Z,100346.63
2019-04-28T15:38:40.589Z,100354.41
2019-04-28T15:41:20.916Z,100352.95
2019-04-28T15:43:39.072Z,100354.93
2019-04-28T15:46:07.197Z,100355.87
2019-04-28T15:48:35.986Z,100351.66
2019-04-28T15:51:04.050Z,100351.03
2019-04-28T15:53:34.453Z,100355.39
2019-04-28T15:56:21.803Z,100352.16
2019-04-28T15:58:49.873Z,100349.91
2019-04-28T16:01:17.900Z,100348.73
2019-04-28T16:03:46.226Z,100351.91
2019-04-28T16:06:14.249Z,100347.17
2019-04-28T16:08:42.316Z,100345.03
2019-04-28T16:11:10.385Z,100343.53
2019-04-28T16:13:38.466Z,100344.61
2019-04-28T16:16:06.537Z,100346.41
2019-04-28T16:18:35.746Z,100350.59
2019-04-28T16:21:03.883Z,100351.59
2019-04-28T16:23:32.025Z,100345.74
2019-04-28T16:26:00.064Z,100345.73
2019-04-28T16:28:28.349Z,100341.65
2019-04-28T16:30:56.346Z,100342.44
2019-04-28T16:33:24.430Z,100344.67
2019-04-28T16:35:52.573Z,100351.16
2019-04-28T16:38:20.838Z,100350.50
2019-04-28T16:40:48.895Z,100356.11
2019-04-28T16:43:18.172Z,100353.83
2019-04-28T16:45:46.394Z,100353.86
2019-04-28T16:48:14.471Z,100352.47
2019-04-28T16:50:42.553Z,100348.55
2019-04-28T16:53:10.592Z,100354.63
2019-04-28T16:55:57.687Z,100358.27
2019-04-28T16:58:48.461Z,100356.84
2019-04-28T17:01:33.610Z,100360.41
2019-04-28T17:04:01.659Z,100360.95
2019-04-28T17:06:29.839Z,100355.89
2019-04-28T17:08:58.246Z,100358.21
2019-04-28T17:11:26.318Z,100355.21
2019-04-28T17:13:54.980Z,100355.69
2019-04-28T17:16:23.332Z,100359.95
2019-04-28T17:18:53.239Z,100363.08
2019-04-28T17:21:21.264Z,100363.90
2019-04-28T17:23:49.452Z,100362.27
2019-04-28T17:26:17.529Z,100362.77
2019-04-28T17:28:45.609Z,100358.50
2019-04-28T17:31:14.780Z,100365.90
2019-04-28T17:33:42.837Z,100372.98
2019-04-28T17:36:10.882Z,100376.76
2019-04-28T17:38:38.900Z,100379.39
2019-04-28T17:41:07.271Z,100378.26
2019-04-28T17:43:36.714Z,100381.58
2019-04-28T17:46:05.044Z,100382.58
2019-04-28T17:48:36.252Z,100388.48
2019-04-28T17:51:05.085Z,100385.54
2019-04-28T17:53:33.363Z,100394.75
2019-04-28T17:56:01.400Z,100391.48
2019-04-28T17:58:29.572Z,100389.19
2019-04-28T18:01:15.038Z,100395.45
2019-04-28T18:03:52.667Z,100392.37
2019-04-28T18:06:21.482Z,100396.15
2019-04-28T18:08:49.565Z,100400.27
2019-04-28T18:11:18.615Z,100401.95
2019-04-28T18:13:46.700Z,100394.22
2019-04-28T18:16:37.033Z,100401.78
2019-04-28T18:19:14.050Z,100404.28
2019-04-28T18:21:43.267Z,100407.24
2019-04-28T18:24:11.486Z,100409.42
2019-04-28T18:26:39.587Z,100414.05
2019-04-28T18:29:07.900Z,100408.48
2019-04-28T18:31:54.227Z,100420.00
2019-04-28T18:34:37.674Z,100420.19
2019-04-28T18:37:36.337Z,100411.67
2019-04-28T18:40:19.645Z,100417.16
2019-04-28T18:42:54.551Z,100423.41
2019-04-28T18:45:31.601Z,100423.42
2019-04-28T18:48:06.521Z,100433.15
2019-04-28T18:50:36.319Z,100434.14
2019-04-28T18:53:04.953Z,100439.08
2019-04-28T18:55:33.615Z,100440.89
2019-04-28T18:58:03.569Z,100445.51
2019-04-28T19:00:35.905Z,100449.98
2019-04-28T19:03:04.290Z,100444.58
2019-04-28T19:05:35.062Z,100456.86
2019-04-28T19:08:17.687Z,100459.66
2019-04-28T19:11:04.147Z,100460.31
2019-04-28T19:13:35.432Z,100470.34
2019-04-28T19:16:39.956Z,100470.53
2019-04-28T19:19:09.389Z,100474.30
2019-04-28T19:21:37.442Z,100476.27
2019-04-28T19:24:05.854Z,100479.70
2019-04-28T19:26:58.048Z,100485.28
2019-04-28T19:29:26.322Z,100495.11
2019-04-28T19:31:54.426Z,100500.19
2019-04-28T19:34:22.559Z,100496.56
2019-04-28T19:36:58.542Z,100491.78
2019-04-28T19:39:26.775Z,100499.14
2019-04-28T19:41:54.961Z,100502.73
2019-04-28T19:44:23.877Z,100502.03
2019-04-28T19:47:01.841Z,100505.13
2019-04-28T19:49:30.236Z,100503.09
2019-04-28T19:51:58.380Z,100511.09
2019-04-28T19:54:30.593Z,100516.30
2019-04-28T19:57:08.032Z,100522.36
2019-04-28T20:00:02.328Z,100526.42
2019-04-28T20:02:39.600Z,100526.38
2019-04-28T20:05:07.840Z,100531.91
2019-04-28T20:07:36.187Z,100532.52
2019-04-28T20:10:05.231Z,100538.37
2019-04-28T20:12:33.250Z,100538.98
2019-04-28T20:15:01.550Z,100538.27
2019-04-28T20:17:29.879Z,100544.94
2019-04-28T20:19:58.276Z,100546.52
2019-04-28T20:22:26.455Z,100545.48
2019-04-28T20:24:56.105Z,100554.96
2019-04-28T20:27:24.310Z,100546.73
2019-04-28T20:29:52.487Z,100551.77
2019-04-28T20:32:20.625Z,100551.92
2019-04-28T20:34:48.787Z,100554.84
2019-04-28T20:37:24.635Z,100555.46
2019-04-28T20:39:58.580Z,100551.52
2019-04-28T20:42:45.770Z,100563.45
2019-04-28T20:45:15.260Z,100562.58
2019-04-28T20:47:43.304Z,100558.92
2019-04-28T20:50:11.583Z,100567.20
2019-04-28T20:52:39.756Z,100560.81
2019-04-28T20:55:08.044Z,100564.20
2019-04-28T20:57:37.169Z,100567.94
2019-04-28T21:00:06.972Z,100567.43
2019-04-28T21:02:38.096Z,100576.68
2019-04-28T21:05:06.385Z,100571.06
2019-04-28T21:07:34.527Z,100572.85
2019-04-28T21:10:02.981Z,100574.44
2019-04-28T21:12:32.353Z,100571.12
2019-04-28T21:15:00.395Z,100571.22
2019-04-28T21:17:28.431Z,100574.41
2019-04-28T21:19:56.801Z,100571.62
2019-04-28T21:22:25.375Z,100573.56
2019-04-28T21:24:53.433Z,100575.84
2019-04-28T21:27:21.556Z,100568.42
2019-04-28T21:29:49.911Z,100578.81
2019-04-28T21:32:18.058Z,100577.48
2019-04-28T21:34:46.511Z,100576.78
2019-04-28T21:37:14.589Z,100580.66
2019-04-28T21:39:42.878Z,100581.97
2019-04-28T21:42:14.977Z,100575.59
2019-04-28T21:45:12.957Z,100582.23
2019-04-28T21:47:41.104Z,100579.44
2019-04-28T21:50:10.406Z,100580.20
2019-04-28T21:52:39.216Z,100578.22
2019-04-28T21:55:07.332Z,100574.60
2019-04-28T21:57:35.451Z,100571.29
2019-04-28T22:00:07.764Z,100579.28
2019-04-28T22:02:36.041Z,100578.27
2019-04-28T22:05:04.843Z,100575.44
2019-04-28T22:07:32.924Z,100577.38
2019-04-28T22:10:01.077Z,100574.91
2019-04-28T22:12:29.242Z,100582.53
2019-04-28T22:14:57.580Z,100583.02
2019-04-28T22:17:25.784Z,100583.95
2019-04-28T22:19:53.821Z,100585.52
2019-04-28T22:22:21.923Z,100587.94
2019-04-28T22:25:02.373Z,100591.30
2019-04-28T22:27:33.989Z,100588.50
2019-04-28T22:30:02.115Z,100594.35
2019-04-28T22:32:32.105Z,100591.67
2019-04-28T22:35:01.575Z,100593.94
2019-04-28T22:37:30.055Z,100597.78
2019-04-28T22:39:58.437Z,100600.06
2019-04-28T22:42:26.509Z,100608.71
2019-04-28T22:44:55.649Z,100607.06
2019-04-28T22:47:23.695Z,100604.45
2019-04-28T22:49:51.749Z,100606.25
2019-04-28T22:52:19.851Z,100606.58
2019-04-28T22:55:07.479Z,100601.36
2019-04-28T22:58:01.118Z,100608.03
2019-04-28T23:00:47.983Z,100613.25
2019-04-28T23:03:36.883Z,100613.03
2019-04-28T23:06:04.897Z,100613.47
2019-04-28T23:08:32.990Z,100618.27
2019-04-28T23:11:00.999Z,100623.78
2019-04-28T23:13:29.076Z,100618.34
2019-04-28T23:15:57.087Z,100623.70
2019-04-28T23:18:25.564Z,100619.11
2019-04-28T23:20:57.124Z,100620.27
2019-04-28T23:23:25.285Z,100620.13
2019-04-28T23:25:53.338Z,100617.17
2019-04-28T23:28:21.478Z,100618.48
2019-04-28T23:30:51.358Z,100614.71
2019-04-28T23:33:20.035Z,100613.75
2019-04-28T23:35:48.443Z,100619.93
2019-04-28T23:38:16.509Z,100624.33
2019-04-28T23:40:58.502Z,100622.54
2019-04-28T23:43:26.697Z,100620.75
2019-04-28T23:45:55.120Z,100624.33
2019-04-28T23:48:23.486Z,100627.91
2019-04-28T23:51:04.311Z,100626.59
2019-04-28T23:54:04.369Z,100625.75
2019-04-28T23:56:32.593Z,100629.89
2019-04-28T23:59:00.933Z,100628.09
